sensor_id;sensor_type;location;lat;lon;timestamp;pressure;altitude;pressure_sealevel;temperature;humidity
12897;BME280;6516;35.028;32.372;2023-02-15T00:01:42;100465.66;;;5.80;78.52
12897;BME280;6516;35.028;32.372;2023-02-15T00:04:13;100470.94;;;5.91;77.99
12897;BME280;6516;35.028;32.372;2023-02-15T00:06:41;100473.63;;;6.04;77.32
12897;BME280;6516;35.028;32.372;2023-02-15T00:09:11;100459.72;;;6.13;77.11
12897;BME280;6516;35.028;32.372;2023-02-15T00:11:39;100460.66;;;6.24;76.61
12897;BME280;6516;35.028;32.372;2023-02-15T00:14:11;100461.53;;;6.24;76.41
12897;BME280;6516;35.028;32.372;2023-02-15T00:16:42;100458.09;;;6.37;76.04
12897;BME280;6516;35.028;32.372;2023-02-15T00:19:11;100455.53;;;6.54;75.33
12897;BME280;6516;35.028;32.372;2023-02-15T00:21:40;100448.59;;;6.63;74.95
12897;BME280;6516;35.028;32.372;2023-02-15T00:24:11;100444.22;;;6.59;74.95
12897;BME280;6516;35.028;32.372;2023-02-15T00:26:40;100436.41;;;6.62;74.81
12897;BME280;6516;35.028;32.372;2023-02-15T00:29:10;100426.78;;;6.49;75.26
12897;BME280;6516;35.028;32.372;2023-02-15T00:31:38;100440.66;;;6.35;75.63
12897;BME280;6516;35.028;32.372;2023-02-15T00:34:07;100436.28;;;6.29;76.09
12897;BME280;6516;35.028;32.372;2023-02-15T00:36:38;100440.66;;;6.35;75.90
12897;BME280;6516;35.028;32.372;2023-02-15T00:39:07;100433.69;;;6.32;75.40
12897;BME280;6516;35.028;32.372;2023-02-15T00:41:37;100433.63;;;6.17;76.07
12897;BME280;6516;35.028;32.372;2023-02-15T00:44:05;100433.53;;;6.02;76.61
12897;BME280;6516;35.028;32.372;2023-02-15T00:46:33;100425.66;;;5.93;77.26
12897;BME280;6516;35.028;32.372;2023-02-15T00:49:02;100425.63;;;5.83;77.79
12897;BME280;6516;35.028;32.372;2023-02-15T00:51:31;100421.25;;;5.80;77.88
12897;BME280;6516;35.028;32.372;2023-02-15T00:53:59;100413.41;;;5.82;77.89
12897;BME280;6516;35.028;32.372;2023-02-15T00:56:27;100416.00;;;5.82;77.71
12897;BME280;6516;35.028;32.372;2023-02-15T00:58:56;100410.84;;;5.86;77.97
12897;BME280;6516;35.028;32.372;2023-02-15T01:01:24;100412.59;;;5.93;77.11
12897;BME280;6516;35.028;32.372;2023-02-15T01:03:52;100407.44;;;6.05;76.48
12897;BME280;6516;35.028;32.372;2023-02-15T01:06:20;100397.81;;;5.97;76.69
12897;BME280;6516;35.028;32.372;2023-02-15T01:08:48;100408.22;;;5.86;77.19
12897;BME280;6516;35.028;32.372;2023-02-15T01:11:18;100406.47;;;5.87;77.01
12897;BME280;6516;35.028;32.372;2023-02-15T01:13:49;100397.66;;;5.73;77.29
12897;BME280;6516;35.028;32.372;2023-02-15T01:16:19;100403.72;;;5.67;78.00
12897;BME280;6516;35.028;32.372;2023-02-15T01:18:47;100400.22;;;5.62;78.28
12897;BME280;6516;35.028;32.372;2023-02-15T01:21:17;100397.59;;;5.59;78.25
12897;BME280;6516;35.028;32.372;2023-02-15T01:23:47;100396.69;;;5.54;78.77
12897;BME280;6516;35.028;32.372;2023-02-15T01:26:15;100395.84;;;5.57;79.17
12897;BME280;6516;35.028;32.372;2023-02-15T01:28:43;100393.22;;;5.55;79.09
12897;BME280;6516;35.028;32.372;2023-02-15T01:31:13;100388.00;;;5.58;79.16
12897;BME280;6516;35.028;32.372;2023-02-15T01:33:44;100379.31;;;5.64;78.71
12897;BME280;6516;35.028;32.372;2023-02-15T01:36:12;100391.50;;;5.66;78.44
12897;BME280;6516;35.028;32.372;2023-02-15T01:38:42;100385.50;;;5.76;78.23
12897;BME280;6516;35.028;32.372;2023-02-15T01:41:10;100385.47;;;5.78;77.97
12897;BME280;6516;35.028;32.372;2023-02-15T01:43:50;100384.66;;;5.79;78.05
12897;BME280;6516;35.028;32.372;2023-02-15T01:46:22;100384.63;;;5.76;77.87
12897;BME280;6516;35.028;32.372;2023-02-15T01:48:58;100381.13;;;5.72;78.10
12897;BME280;6516;35.028;32.372;2023-02-15T01:51:30;100373.28;;;5.71;78.38
12897;BME280;6516;35.028;32.372;2023-02-15T01:54:03;100372.41;;;5.73;78.44
12897;BME280;6516;35.028;32.372;2023-02-15T01:56:36;100374.09;;;5.61;78.81
12897;BME280;6516;35.028;32.372;2023-02-15T01:59:08;100363.63;;;5.56;79.24
12897;BME280;6516;35.028;32.372;2023-02-15T02:01:39;100369.69;;;5.49;79.75
12897;BME280;6516;35.028;32.372;2023-02-15T02:04:13;100372.25;;;5.46;80.39
12897;BME280;6516;35.028;32.372;2023-02-15T02:06:44;100371.31;;;5.37;80.79
12897;BME280;6516;35.028;32.372;2023-02-15T02:09:14;100377.34;;;5.25;81.02
12897;BME280;6516;35.028;32.372;2023-02-15T02:11:44;100372.94;;;5.18;81.73
12897;BME280;6516;35.028;32.372;2023-02-15T02:14:14;100372.06;;;5.13;82.23
12897;BME280;6516;35.028;32.372;2023-02-15T02:16:49;100372.91;;;5.14;82.36
12897;BME280;6516;35.028;32.372;2023-02-15T02:23:15;100363.47;;;5.32;82.27
12897;BME280;6516;35.028;32.372;2023-02-15T02:29:49;100366.94;;;5.28;82.39
12897;BME280;6516;35.028;32.372;2023-02-15T02:33:07;100360.94;;;5.43;82.50
12897;BME280;6516;35.028;32.372;2023-02-15T02:35:58;100349.72;;;5.60;81.96
12897;BME280;6516;35.028;32.372;2023-02-15T02:38:40;100349.81;;;5.78;81.00
12897;BME280;6516;35.028;32.372;2023-02-15T02:41:17;100353.34;;;5.80;80.21
12897;BME280;6516;35.028;32.372;2023-02-15T02:43:52;100345.56;;;5.98;80.00
12897;BME280;6516;35.028;32.372;2023-02-15T02:46:27;100350.03;;;6.26;78.24
12897;BME280;6516;35.028;32.372;2023-02-15T02:49:00;100350.03;;;6.32;77.24
12897;BME280;6516;35.028;32.372;2023-02-15T02:51:29;100342.19;;;6.38;76.98
12897;BME280;6516;35.028;32.372;2023-02-15T02:54:00;100344.78;;;6.29;76.61
12897;BME280;6516;35.028;32.372;2023-02-15T02:56:35;100342.09;;;6.01;78.10
12897;BME280;6516;35.028;32.372;2023-02-15T02:59:08;100348.19;;;6.07;77.83
12897;BME280;6516;35.028;32.372;2023-02-15T03:01:42;100343.88;;;6.12;77.62
12897;BME280;6516;35.028;32.372;2023-02-15T03:04:16;100348.19;;;5.95;78.43
12897;BME280;6516;35.028;32.372;2023-02-15T03:06:48;100337.66;;;5.83;78.60
12897;BME280;6516;35.028;32.372;2023-02-15T03:09:23;100340.19;;;5.70;78.54
12897;BME280;6516;35.028;32.372;2023-02-15T03:12:00;100346.25;;;5.64;78.97
12897;BME280;6516;35.028;32.372;2023-02-15T03:14:28;100342.81;;;5.71;78.85
12897;BME280;6516;35.028;32.372;2023-02-15T03:16:57;100348.03;;;5.71;78.44
12897;BME280;6516;35.028;32.372;2023-02-15T03:19:29;100355.00;;;5.77;78.02
12897;BME280;6516;35.028;32.372;2023-02-15T03:22:01;100349.78;;;5.77;77.67
12897;BME280;6516;35.028;32.372;2023-02-15T03:24:36;100344.53;;;5.65;78.08
12897;BME280;6516;35.028;32.372;2023-02-15T03:27:12;100347.94;;;5.53;78.38
12897;BME280;6516;35.028;32.372;2023-02-15T03:29:45;100354.06;;;5.57;77.87
12897;BME280;6516;35.028;32.372;2023-02-15T03:32:17;100348.84;;;5.61;77.36
12897;BME280;6516;35.028;32.372;2023-02-15T03:34:46;100348.00;;;5.65;77.10
12897;BME280;6516;35.028;32.372;2023-02-15T03:37:18;100346.28;;;5.67;76.80
12897;BME280;6516;35.028;32.372;2023-02-15T03:39:53;100355.88;;;5.71;76.59
12897;BME280;6516;35.028;32.372;2023-02-15T03:42:45;100356.75;;;5.79;76.05
12897;BME280;6516;35.028;32.372;2023-02-15T03:45:22;100357.69;;;5.86;75.52
12897;BME280;6516;35.028;32.372;2023-02-15T03:47:54;100361.22;;;5.92;75.35
12897;BME280;6516;35.028;32.372;2023-02-15T03:50:27;100356.88;;;5.94;75.39
12897;BME280;6516;35.028;32.372;2023-02-15T03:53:15;100359.47;;;5.96;75.36
12897;BME280;6516;35.028;32.372;2023-02-15T03:55:46;100365.56;;;5.90;75.90
12897;BME280;6516;35.028;32.372;2023-02-15T03:58:14;100368.16;;;5.86;76.12
12897;BME280;6516;35.028;32.372;2023-02-15T04:01:00;100366.41;;;5.85;76.56
12897;BME280;6516;35.028;32.372;2023-02-15T04:03:53;100371.66;;;5.91;76.67
12897;BME280;6516;35.028;32.372;2023-02-15T04:06:26;100360.38;;;6.02;76.42
12897;BME280;6516;35.028;32.372;2023-02-15T04:08:53;100369.13;;;6.04;76.40
12897;BME280;6516;35.028;32.372;2023-02-15T04:11:35;100365.63;;;6.11;76.92
12897;BME280;6516;35.028;32.372;2023-02-15T04:14:02;100365.69;;;6.23;76.87
12897;BME280;6516;35.028;32.372;2023-02-15T04:16:50;100368.34;;;6.47;78.12
12897;BME280;6516;35.028;32.372;2023-02-15T04:19:17;100367.53;;;6.78;80.98
12897;BME280;6516;35.028;32.372;2023-02-15T04:22:03;100366.66;;;7.11;83.03
12897;BME280;6516;35.028;32.372;2023-02-15T04:24:48;100370.97;;;7.45;85.43
12897;BME280;6516;35.028;32.372;2023-02-15T04:27:33;100370.97;;;7.60;85.69
12897;BME280;6516;35.028;32.372;2023-02-15T04:30:01;100377.00;;;7.78;85.59
12897;BME280;6516;35.028;32.372;2023-02-15T04:32:29;100374.38;;;7.84;86.06
12897;BME280;6516;35.028;32.372;2023-02-15T04:34:57;100376.97;;;7.86;85.75
12897;BME280;6516;35.028;32.372;2023-02-15T04:37:26;100378.72;;;7.88;86.30
12897;BME280;6516;35.028;32.372;2023-02-15T04:39:54;100375.19;;;7.91;86.51
12897;BME280;6516;35.028;32.372;2023-02-15T04:42:24;100372.59;;;7.95;87.51
12897;BME280;6516;35.028;32.372;2023-02-15T04:44:52;100376.94;;;8.02;87.52
12897;BME280;6516;35.028;32.372;2023-02-15T04:47:21;100370.78;;;8.11;87.61
12897;BME280;6516;35.028;32.372;2023-02-15T04:49:49;100374.25;;;8.14;87.45
12897;BME280;6516;35.028;32.372;2023-02-15T04:52:17;100369.00;;;8.14;87.59
12897;BME280;6516;35.028;32.372;2023-02-15T04:54:46;100377.72;;;8.19;87.44
12897;BME280;6516;35.028;32.372;2023-02-15T04:57:14;100381.25;;;8.21;87.57
12897;BME280;6516;35.028;32.372;2023-02-15T04:59:42;100384.72;;;8.23;87.67
12897;BME280;6516;35.028;32.372;2023-02-15T05:02:10;100388.19;;;8.28;87.58
12897;BME280;6516;35.028;32.372;2023-02-15T05:04:38;100397.78;;;8.34;87.45
12897;BME280;6516;35.028;32.372;2023-02-15T05:07:05;100396.91;;;8.39;87.35
12897;BME280;6516;35.028;32.372;2023-02-15T05:09:33;100394.25;;;8.42;87.27
12897;BME280;6516;35.028;32.372;2023-02-15T05:12:02;100397.69;;;8.47;86.90
12897;BME280;6516;35.028;32.372;2023-02-15T05:14:30;100405.53;;;8.58;86.98
12897;BME280;6516;35.028;32.372;2023-02-15T05:16:58;100395.84;;;8.64;87.04
12897;BME280;6516;35.028;32.372;2023-02-15T05:19:29;100412.50;;;8.63;86.67
12897;BME280;6516;35.028;32.372;2023-02-15T05:21:56;100414.28;;;8.61;86.72
12897;BME280;6516;35.028;32.372;2023-02-15T05:24:24;100415.97;;;8.65;86.54
12897;BME280;6516;35.028;32.372;2023-02-15T05:27:12;100421.22;;;8.65;86.61
12897;BME280;6516;35.028;32.372;2023-02-15T05:30:09;100422.09;;;8.67;86.62
12897;BME280;6516;35.028;32.372;2023-02-15T05:32:38;100423.81;;;8.71;86.62
12897;BME280;6516;35.028;32.372;2023-02-15T05:35:07;100426.41;;;8.74;86.21
12897;BME280;6516;35.028;32.372;2023-02-15T05:37:34;100422.00;;;8.82;85.76
12897;BME280;6516;35.028;32.372;2023-02-15T05:40:02;100421.94;;;8.93;85.10
12897;BME280;6516;35.028;32.372;2023-02-15T05:42:32;100425.31;;;9.05;84.92
12897;BME280;6516;35.028;32.372;2023-02-15T05:45:00;100426.13;;;9.15;84.24
12897;BME280;6516;35.028;32.372;2023-02-15T05:47:29;100425.16;;;9.29;83.75
12897;BME280;6516;35.028;32.372;2023-02-15T05:49:57;100425.91;;;9.43;82.09
12897;BME280;6516;35.028;32.372;2023-02-15T05:52:25;100423.13;;;9.58;79.87
12897;BME280;6516;35.028;32.372;2023-02-15T05:54:52;100423.84;;;9.75;77.48
12897;BME280;6516;35.028;32.372;2023-02-15T05:57:20;100428.94;;;9.90;76.02
12897;BME280;6516;35.028;32.372;2023-02-15T05:59:49;100433.13;;;10.11;75.44
12897;BME280;6516;35.028;32.372;2023-02-15T06:02:17;100431.94;;;10.36;73.98
12897;BME280;6516;35.028;32.372;2023-02-15T06:04:47;100437.81;;;10.56;72.25
12897;BME280;6516;35.028;32.372;2023-02-15T06:07:14;100443.72;;;10.74;72.31
12897;BME280;6516;35.028;32.372;2023-02-15T06:09:42;100437.22;;;10.96;70.60
12897;BME280;6516;35.028;32.372;2023-02-15T06:12:10;100432.44;;;11.21;70.07
12897;BME280;6516;35.028;32.372;2023-02-15T06:14:37;100432.13;;;11.42;68.87
12897;BME280;6516;35.028;32.372;2023-02-15T06:17:07;100434.28;;;11.71;68.93
12897;BME280;6516;35.028;32.372;2023-02-15T06:19:35;100435.66;;;11.93;67.94
12897;BME280;6516;35.028;32.372;2023-02-15T06:22:03;100431.59;;;12.19;68.58
12897;BME280;6516;35.028;32.372;2023-02-15T06:24:33;100426.56;;;12.48;65.32
12897;BME280;6516;35.028;32.372;2023-02-15T06:27:01;100429.56;;;12.73;60.47
12897;BME280;6516;35.028;32.372;2023-02-15T06:29:29;100431.41;;;13.09;62.00
12897;BME280;6516;35.028;32.372;2023-02-15T06:31:57;100440.13;;;13.49;59.92
12897;BME280;6516;35.028;32.372;2023-02-15T06:34:26;100438.06;;;13.93;57.38
12897;BME280;6516;35.028;32.372;2023-02-15T06:36:54;100438.69;;;14.35;54.79
12897;BME280;6516;35.028;32.372;2023-02-15T06:39:21;100430.41;;;14.76;53.11
12897;BME280;6516;35.028;32.372;2023-02-15T06:41:49;100422.75;;;14.94;52.77
12897;BME280;6516;35.028;32.372;2023-02-15T06:44:17;100429.56;;;15.03;51.97
12897;BME280;6516;35.028;32.372;2023-02-15T06:46:44;100427.50;;;14.83;51.55
12897;BME280;6516;35.028;32.372;2023-02-15T06:49:12;100435.09;;;14.95;51.51
12897;BME280;6516;35.028;32.372;2023-02-15T06:51:41;100425.56;;;15.17;51.27
12897;BME280;6516;35.028;32.372;2023-02-15T06:54:09;100422.75;;;15.22;50.89
12897;BME280;6516;35.028;32.372;2023-02-15T06:56:37;100435.13;;;14.94;51.91
12897;BME280;6516;35.028;32.372;2023-02-15T06:59:05;100428.66;;;14.75;52.20
12897;BME280;6516;35.028;32.372;2023-02-15T07:01:32;100441.16;;;14.41;52.74
12897;BME280;6516;35.028;32.372;2023-02-15T07:04:02;100443.28;;;14.28;53.70
12897;BME280;6516;35.028;32.372;2023-02-15T07:06:31;100442.03;;;14.09;54.20
12897;BME280;6516;35.028;32.372;2023-02-15T07:09:01;100437.09;;;13.96;54.59
12897;BME280;6516;35.028;32.372;2023-02-15T07:11:30;100432.97;;;14.18;54.52
12897;BME280;6516;35.028;32.372;2023-02-15T07:14:15;100436.59;;;14.46;54.03
12897;BME280;6516;35.028;32.372;2023-02-15T07:16:43;100440.72;;;14.56;54.18
12897;BME280;6516;35.028;32.372;2023-02-15T07:19:10;100438.00;;;14.88;54.53
12897;BME280;6516;35.028;32.372;2023-02-15T07:21:38;100429.13;;;15.44;52.34
12897;BME280;6516;35.028;32.372;2023-02-15T07:24:08;100424.31;;;15.81;50.74
12897;BME280;6516;35.028;32.372;2023-02-15T07:26:36;100424.88;;;16.15;49.57
12897;BME280;6516;35.028;32.372;2023-02-15T07:29:04;100434.66;;;16.13;49.70
12897;BME280;6516;35.028;32.372;2023-02-15T07:31:31;100425.06;;;16.09;50.02
12897;BME280;6516;35.028;32.372;2023-02-15T07:33:59;100438.09;;;15.92;50.47
12897;BME280;6516;35.028;32.372;2023-02-15T07:36:27;100433.47;;;15.97;49.52
12897;BME280;6516;35.028;32.372;2023-02-15T07:38:54;100429.16;;;16.19;49.72
12897;BME280;6516;35.028;32.372;2023-02-15T07:41:23;100434.03;;;16.54;49.78
12897;BME280;6516;35.028;32.372;2023-02-15T07:43:51;100441.13;;;16.78;48.24
12897;BME280;6516;35.028;32.372;2023-02-15T07:46:19;100438.81;;;16.69;48.60
12897;BME280;6516;35.028;32.372;2023-02-15T07:48:47;100442.81;;;16.33;48.57
12897;BME280;6516;35.028;32.372;2023-02-15T07:51:15;100452.47;;;16.11;49.17
12897;BME280;6516;35.028;32.372;2023-02-15T07:53:43;100452.50;;;15.85;50.05
12897;BME280;6516;35.028;32.372;2023-02-15T07:56:12;100451.81;;;15.78;49.58
12897;BME280;6516;35.028;32.372;2023-02-15T07:58:42;100449.44;;;15.71;49.80
12897;BME280;6516;35.028;32.372;2023-02-15T08:01:23;100449.34;;;15.74;50.79
12897;BME280;6516;35.028;32.372;2023-02-15T08:03:52;100461.34;;;16.10;50.93
12897;BME280;6516;35.028;32.372;2023-02-15T08:06:20;100458.25;;;16.46;49.09
12897;BME280;6516;35.028;32.372;2023-02-15T08:08:48;100458.91;;;16.53;48.94
12897;BME280;6516;35.028;32.372;2023-02-15T08:11:18;100457.63;;;16.40;47.56
12897;BME280;6516;35.028;32.372;2023-02-15T08:13:57;100457.13;;;16.29;49.01
12897;BME280;6516;35.028;32.372;2023-02-15T08:16:30;100463.88;;;16.13;49.48
12897;BME280;6516;35.028;32.372;2023-02-15T08:19:00;100472.03;;;15.82;49.87
12897;BME280;6516;35.028;32.372;2023-02-15T08:21:30;100475.66;;;15.54;50.97
12897;BME280;6516;35.028;32.372;2023-02-15T08:23:59;100480.94;;;15.28;51.76
12897;BME280;6516;35.028;32.372;2023-02-15T08:26:28;100474.09;;;15.48;51.42
12897;BME280;6516;35.028;32.372;2023-02-15T08:28:58;100478.31;;;15.54;51.19
12897;BME280;6516;35.028;32.372;2023-02-15T08:31:27;100468.22;;;15.39;51.99
12897;BME280;6516;35.028;32.372;2023-02-15T08:33:56;100464.47;;;15.70;51.70
12897;BME280;6516;35.028;32.372;2023-02-15T08:36:26;100469.13;;;15.64;52.12
12897;BME280;6516;35.028;32.372;2023-02-15T08:38:54;100468.72;;;15.76;51.68
12897;BME280;6516;35.028;32.372;2023-02-15T08:41:25;100456.38;;;15.75;51.84
12897;BME280;6516;35.028;32.372;2023-02-15T08:43:56;100459.75;;;15.80;51.14
12897;BME280;6516;35.028;32.372;2023-02-15T08:46:28;100458.75;;;16.08;51.58
12897;BME280;6516;35.028;32.372;2023-02-15T08:48:57;100450.44;;;16.17;50.07
12897;BME280;6516;35.028;32.372;2023-02-15T08:51:27;100455.44;;;16.02;50.52
12897;BME280;6516;35.028;32.372;2023-02-15T08:53:57;100447.00;;;16.14;50.88
12897;BME280;6516;35.028;32.372;2023-02-15T08:56:28;100446.66;;;16.49;49.37
12897;BME280;6516;35.028;32.372;2023-02-15T08:58:58;100443.28;;;16.90;48.58
12897;BME280;6516;35.028;32.372;2023-02-15T09:01:52;100450.38;;;17.34;48.03
12897;BME280;6516;35.028;32.372;2023-02-15T09:04:21;100442.19;;;17.81;46.73
12897;BME280;6516;35.028;32.372;2023-02-15T09:06:50;100442.81;;;17.88;46.01
12897;BME280;6516;35.028;32.372;2023-02-15T09:09:18;100445.41;;;17.89;45.83
12897;BME280;6516;35.028;32.372;2023-02-15T09:11:48;100452.63;;;17.86;45.41
12897;BME280;6516;35.028;32.372;2023-02-15T09:14:19;100443.41;;;17.53;45.63
12897;BME280;6516;35.028;32.372;2023-02-15T09:16:49;100443.34;;;17.54;45.90
12897;BME280;6516;35.028;32.372;2023-02-15T09:19:18;100449.47;;;17.98;45.80
12897;BME280;6516;35.028;32.372;2023-02-15T09:21:47;100450.38;;;18.17;45.30
12897;BME280;6516;35.028;32.372;2023-02-15T09:24:16;100447.72;;;18.57;44.26
12897;BME280;6516;35.028;32.372;2023-02-15T09:26:46;100443.78;;;18.84;43.10
12897;BME280;6516;35.028;32.372;2023-02-15T09:29:15;100435.78;;;19.02;42.16
12897;BME280;6516;35.028;32.372;2023-02-15T09:31:47;100441.06;;;18.85;42.40
12897;BME280;6516;35.028;32.372;2023-02-15T09:34:18;100433.13;;;19.02;41.55
12897;BME280;6516;35.028;32.372;2023-02-15T09:36:46;100431.88;;;18.72;41.96
12897;BME280;6516;35.028;32.372;2023-02-15T09:39:16;100435.22;;;18.39;42.63
12897;BME280;6516;35.028;32.372;2023-02-15T09:42:10;100429.75;;;18.42;42.94
12897;BME280;6516;35.028;32.372;2023-02-15T09:45:03;100429.28;;;18.52;41.88
12897;BME280;6516;35.028;32.372;2023-02-15T09:51:07;100422.44;;;18.84;41.97
12897;BME280;6516;35.028;32.372;2023-02-15T09:54:00;100408.53;;;18.96;40.58
12897;BME280;6516;35.028;32.372;2023-02-15T09:56:48;100408.16;;;19.03;40.93
12897;BME280;6516;35.028;32.372;2023-02-15T09:59:26;100409.22;;;19.18;40.02
12897;BME280;6516;35.028;32.372;2023-02-15T10:02:13;100408.56;;;19.31;39.75
12897;BME280;6516;35.028;32.372;2023-02-15T10:04:57;100406.28;;;19.24;40.21
12897;BME280;6516;35.028;32.372;2023-02-15T10:07:56;100407.41;;;19.37;39.07
12897;BME280;6516;35.028;32.372;2023-02-15T10:10:40;100397.50;;;19.39;39.29
12897;BME280;6516;35.028;32.372;2023-02-15T10:13:26;100404.03;;;19.33;41.29
12897;BME280;6516;35.028;32.372;2023-02-15T10:16:09;100405.41;;;19.59;40.22
12897;BME280;6516;35.028;32.372;2023-02-15T10:18:56;100404.13;;;19.49;38.92
12897;BME280;6516;35.028;32.372;2023-02-15T10:21:38;100402.25;;;19.51;38.32
12897;BME280;6516;35.028;32.372;2023-02-15T10:27:18;100401.09;;;19.57;38.87
12897;BME280;6516;35.028;32.372;2023-02-15T10:29:55;100398.88;;;19.48;37.47
12897;BME280;6516;35.028;32.372;2023-02-15T10:32:32;100401.19;;;19.36;35.65
12897;BME280;6516;35.028;32.372;2023-02-15T10:35:12;100400.69;;;19.47;36.74
12897;BME280;6516;35.028;32.372;2023-02-15T10:37:56;100406.13;;;19.63;38.58
12897;BME280;6516;35.028;32.372;2023-02-15T10:40:36;100410.75;;;19.76;38.56
12897;BME280;6516;35.028;32.372;2023-02-15T10:43:26;100409.56;;;19.64;38.38
12897;BME280;6516;35.028;32.372;2023-02-15T10:46:20;100411.53;;;19.61;38.44
12897;BME280;6516;35.028;32.372;2023-02-15T10:49:22;100405.09;;;19.65;36.89
12897;BME280;6516;35.028;32.372;2023-02-15T10:52:10;100410.13;;;19.54;37.55
12897;BME280;6516;35.028;32.372;2023-02-15T10:54:51;100404.13;;;19.66;36.74
12897;BME280;6516;35.028;32.372;2023-02-15T10:57:29;100406.34;;;19.92;36.69
12897;BME280;6516;35.028;32.372;2023-02-15T11:00:08;100402.59;;;20.13;35.97
12897;BME280;6516;35.028;32.372;2023-02-15T11:05:46;100396.38;;;19.26;36.92
12897;BME280;6516;35.028;32.372;2023-02-15T11:08:26;100399.28;;;19.03;36.32
12897;BME280;6516;35.028;32.372;2023-02-15T11:10:59;100393.66;;;18.90;38.55
12897;BME280;6516;35.028;32.372;2023-02-15T11:13:36;100393.31;;;18.61;39.43
12897;BME280;6516;35.028;32.372;2023-02-15T11:16:10;100394.38;;;18.38;38.68
12897;BME280;6516;35.028;32.372;2023-02-15T11:18:46;100390.00;;;18.56;38.18
12897;BME280;6516;35.028;32.372;2023-02-15T11:21:21;100388.28;;;18.55;38.28
12897;BME280;6516;35.028;32.372;2023-02-15T11:23:52;100394.03;;;18.64;35.84
12897;BME280;6516;35.028;32.372;2023-02-15T11:26:27;100390.50;;;18.64;35.92
12897;BME280;6516;35.028;32.372;2023-02-15T11:28:59;100400.66;;;18.93;37.54
12897;BME280;6516;35.028;32.372;2023-02-15T11:31:41;100395.59;;;19.05;37.67
12897;BME280;6516;35.028;32.372;2023-02-15T11:34:17;100408.00;;;18.69;37.18
12897;BME280;6516;35.028;32.372;2023-02-15T11:36:49;100403.56;;;18.70;37.93
12897;BME280;6516;35.028;32.372;2023-02-15T11:39:20;100409.59;;;18.73;36.64
12897;BME280;6516;35.028;32.372;2023-02-15T11:41:51;100398.50;;;19.01;37.42
12897;BME280;6516;35.028;32.372;2023-02-15T11:44:25;100398.97;;;19.27;35.88
12897;BME280;6516;35.028;32.372;2023-02-15T11:46:55;100396.78;;;19.54;34.54
12897;BME280;6516;35.028;32.372;2023-02-15T11:49:27;100395.41;;;19.45;34.20
12897;BME280;6516;35.028;32.372;2023-02-15T11:51:58;100393.41;;;19.13;35.58
12897;BME280;6516;35.028;32.372;2023-02-15T11:54:31;100404.03;;;18.96;37.22
12897;BME280;6516;35.028;32.372;2023-02-15T11:57:05;100410.63;;;18.89;36.38
12897;BME280;6516;35.028;32.372;2023-02-15T11:59:41;100404.72;;;18.83;36.58
12897;BME280;6516;35.028;32.372;2023-02-15T12:02:16;100410.81;;;18.85;36.19
12897;BME280;6516;35.028;32.372;2023-02-15T12:04:49;100404.22;;;18.93;36.35
12897;BME280;6516;35.028;32.372;2023-02-15T12:07:24;100405.41;;;18.86;36.42
12897;BME280;6516;35.028;32.372;2023-02-15T12:09:59;100404.72;;;18.83;36.20
12897;BME280;6516;35.028;32.372;2023-02-15T12:12:33;100405.41;;;18.49;36.40
12897;BME280;6516;35.028;32.372;2023-02-15T12:15:04;100399.84;;;18.54;35.91
12897;BME280;6516;35.028;32.372;2023-02-15T12:17:35;100394.91;;;18.65;35.84
12897;BME280;6516;35.028;32.372;2023-02-15T12:20:21;100392.00;;;18.51;35.29
12897;BME280;6516;35.028;32.372;2023-02-15T12:22:54;100396.00;;;18.79;34.73
12897;BME280;6516;35.028;32.372;2023-02-15T12:25:34;100400.53;;;18.59;35.07
12897;BME280;6516;35.028;32.372;2023-02-15T12:28:05;100396.47;;;18.50;35.27
12897;BME280;6516;35.028;32.372;2023-02-15T12:30:47;100410.56;;;18.34;35.38
12897;BME280;6516;35.028;32.372;2023-02-15T12:33:17;100412.66;;;18.26;35.61
12897;BME280;6516;35.028;32.372;2023-02-15T12:35:57;100415.50;;;18.43;36.00
12897;BME280;6516;35.028;32.372;2023-02-15T12:38:28;100411.75;;;18.47;37.24
12897;BME280;6516;35.028;32.372;2023-02-15T12:41:03;100414.19;;;18.51;37.16
12897;BME280;6516;35.028;32.372;2023-02-15T12:43:37;100405.53;;;18.46;36.75
12897;BME280;6516;35.028;32.372;2023-02-15T12:46:21;100413.88;;;18.39;36.32
12897;BME280;6516;35.028;32.372;2023-02-15T12:49:06;100414.03;;;18.16;36.72
12897;BME280;6516;35.028;32.372;2023-02-15T12:51:48;100412.81;;;18.03;36.68
12897;BME280;6516;35.028;32.372;2023-02-15T12:54:30;100407.91;;;18.14;36.33
12897;BME280;6516;35.028;32.372;2023-02-15T12:57:25;100415.94;;;18.32;35.15
12897;BME280;6516;35.028;32.372;2023-02-15T12:59:56;100408.78;;;18.34;33.74
12897;BME280;6516;35.028;32.372;2023-02-15T13:02:31;100409.34;;;18.21;34.17
12897;BME280;6516;35.028;32.372;2023-02-15T13:05:17;100415.09;;;18.12;34.71
12897;BME280;6516;35.028;32.372;2023-02-15T13:07:51;100418.28;;;17.80;34.35
12897;BME280;6516;35.028;32.372;2023-02-15T13:10:27;100414.16;;;17.93;34.58
12897;BME280;6516;35.028;32.372;2023-02-15T13:12:57;100411.50;;;17.93;34.03
12897;BME280;6516;35.028;32.372;2023-02-15T13:15:35;100413.31;;;18.12;33.99
12897;BME280;6516;35.028;32.372;2023-02-15T13:18:05;100412.41;;;18.12;33.71
12897;BME280;6516;35.028;32.372;2023-02-15T13:20:41;100415.81;;;17.95;34.52
12897;BME280;6516;35.028;32.372;2023-02-15T13:23:21;100411.28;;;17.57;34.95
12897;BME280;6516;35.028;32.372;2023-02-15T13:25:56;100409.59;;;17.33;36.49
12897;BME280;6516;35.028;32.372;2023-02-15T13:28:34;100414.25;;;17.07;36.82
12897;BME280;6516;35.028;32.372;2023-02-15T13:31:13;100421.22;;;17.09;37.00
12897;BME280;6516;35.028;32.372;2023-02-15T13:33:44;100417.69;;;16.87;37.99
12897;BME280;6516;35.028;32.372;2023-02-15T13:36:19;100425.22;;;16.76;38.43
12897;BME280;6516;35.028;32.372;2023-02-15T13:38:57;100425.44;;;16.70;39.06
12897;BME280;6516;35.028;32.372;2023-02-15T13:41:35;100425.88;;;16.60;37.51
12897;BME280;6516;35.028;32.372;2023-02-15T13:44:24;100424.78;;;16.41;38.10